Time;durP1;ratioP1;P1;durP2;ratioP2;P2;SDS_P1;SDS_P2;PMS_P1;PMS_P2;Temp;Humidity;BMP_temperature;BMP_pressure;BME280_temperature;BME280_humidity;BME280_pressure;Samples;Min_cycle;Max_cycle;Signal;HPM_P1;HPM_P2
2023/10/13 00:00:40;;;;;;;1.15;1.00;;;21.00;71.90;;;;;;5124307;28;20030;-36
2023/10/13 00:03:15;;;;;;;0.80;0.80;;;21.00;71.90;;;;;;5120867;28;20653;-36
2023/10/13 00:05:42;;;;;;;1.05;1.00;;;21.00;71.80;;;;;;5101583;28;20030;-36
2023/10/13 00:08:08;;;;;;;1.27;1.10;;;21.00;71.90;;;;;;5115880;28;20020;-36
2023/10/13 00:10:34;;;;;;;1.13;0.90;;;21.00;71.90;;;;;;5123304;28;20084;-36
2023/10/13 00:13:15;;;;;;;1.35;1.10;;;21.00;71.90;;;;;;5123221;28;20023;-36
2023/10/13 00:16:03;;;;;;;1.17;1.08;;;21.00;71.80;;;;;;5117218;28;20031;-36
2023/10/13 00:18:41;;;;;;;1.20;1.10;;;21.00;71.80;;;;;;5112816;28;20055;-36
2023/10/13 00:23:53;;;;;;;1.30;1.10;;;21.00;71.90;;;;;;5114783;28;20497;-36
2023/10/13 00:26:24;;;;;;;1.13;1.02;;;21.00;71.90;;;;;;5113029;28;20036;-36
2023/10/13 00:28:58;;;;;;;1.05;1.00;;;21.00;71.80;;;;;;5096185;28;20656;-36
2023/10/13 00:31:33;;;;;;;1.25;1.10;;;21.00;71.80;;;;;;5114236;28;20016;-36
2023/10/13 00:34:12;;;;;;;1.00;0.93;;;21.00;71.90;;;;;;5114493;28;20039;-36
2023/10/13 00:37:28;;;;;;;2.15;1.10;;;21.00;71.80;;;;;;5117097;28;20024;-36
2023/10/13 00:39:24;;;;;;;1.13;1.02;;;21.00;71.80;;;;;;5106005;28;20058;-36
2023/10/13 00:41:52;;;;;;;1.10;1.00;;;21.00;71.90;;;;;;5121373;28;20024;-36
2023/10/13 00:47:37;;;;;;;1.30;1.20;;;20.90;71.80;;;;;;5041608;28;20096;-36
2023/10/13 00:50:10;;;;;;;1.08;1.08;;;20.90;71.80;;;;;;5023362;28;20510;-36
2023/10/13 00:52:37;;;;;;;1.13;1.00;;;21.00;71.90;;;;;;5041763;28;20030;-36
2023/10/13 00:55:04;;;;;;;1.33;1.20;;;20.90;71.80;;;;;;5008445;28;20115;-35
2023/10/13 00:57:30;;;;;;;1.80;1.30;;;20.90;71.80;;;;;;5018969;28;20066;-35
2023/10/13 01:00:12;;;;;;;1.20;1.10;;;20.90;71.80;;;;;;5039785;28;20029;-35
2023/10/13 01:02:38;;;;;;;1.58;1.20;;;20.90;71.70;;;;;;5041454;28;20095;-35
2023/10/13 01:05:09;;;;;;;1.42;1.23;;;20.90;71.80;;;;;;5041170;28;20029;-35
2023/10/13 01:07:39;;;;;;;1.00;0.90;;;20.90;71.80;;;;;;5041440;28;20048;-35
2023/10/13 01:10:13;;;;;;;1.33;1.20;;;20.90;71.90;;;;;;5040893;28;20041;-35
2023/10/13 01:12:45;;;;;;;1.65;1.08;;;20.90;71.80;;;;;;5017962;28;20044;-35
2023/10/13 01:15:16;;;;;;;1.27;1.02;;;20.90;71.80;;;;;;5041129;28;20108;-35
2023/10/13 01:17:44;;;;;;;1.30;1.10;;;20.90;71.80;;;;;;5039922;28;20041;-35
2023/10/13 01:20:19;;;;;;;0.80;0.80;;;20.90;71.80;;;;;;5040874;28;20048;-35
2023/10/13 01:22:55;;;;;;;1.55;0.90;;;20.90;72.10;;;;;;5068381;28;20047;-36
2023/10/13 01:25:29;;;;;;;0.90;0.90;;;20.90;72.70;;;;;;5116125;28;20027;-36
2023/10/13 01:27:57;;;;;;;1.10;1.00;;;20.90;72.70;;;;;;5107555;28;20056;-36
2023/10/13 01:30:24;;;;;;;;;;;20.90;72.70;;;;;;5115392;28;20028;-36
2023/10/13 01:32:54;;;;;;;0.93;0.90;;;20.90;72.50;;;;;;5118756;28;19908;-36
2023/10/13 01:35:26;;;;;;;0.70;0.70;;;21.00;72.50;;;;;;5115698;28;20020;-36
2023/10/13 01:37:52;;;;;;;1.20;1.10;;;20.90;72.40;;;;;;5119291;28;20118;-36
2023/10/13 01:40:20;;;;;;;1.00;0.90;;;21.00;72.50;;;;;;5114464;28;20088;-35
2023/10/13 01:42:55;;;;;;;2.15;1.00;;;21.00;72.60;;;;;;5114586;28;20332;-35
2023/10/13 01:45:28;;;;;;;1.10;1.00;;;21.00;72.50;;;;;;5108678;28;20054;-35
2023/10/13 01:47:55;;;;;;;1.20;0.95;;;20.90;72.40;;;;;;5120746;28;20035;-36
2023/10/13 01:50:40;;;;;;;2.33;1.00;;;21.00;72.40;;;;;;5112535;28;20034;-35
2023/10/13 01:53:14;;;;;;;1.25;0.90;;;20.90;72.30;;;;;;5118636;28;20028;-35
2023/10/13 01:55:43;;;;;;;1.05;0.90;;;20.90;72.30;;;;;;5103844;28;20036;-35
2023/10/13 01:58:16;;;;;;;0.90;0.90;;;20.90;72.30;;;;;;5104325;28;20044;-35
2023/10/13 02:00:44;;;;;;;1.65;1.02;;;20.90;72.30;;;;;;5105156;28;20069;-36
2023/10/13 02:03:21;;;;;;;1.20;1.10;;;20.90;72.30;;;;;;5107205;28;20024;-35
2023/10/13 02:05:49;;;;;;;1.02;0.88;;;20.90;72.30;;;;;;5087993;28;20024;-36
2023/10/13 02:08:25;;;;;;;1.15;0.88;;;20.90;72.30;;;;;;5107620;28;20028;-35
2023/10/13 02:10:55;;;;;;;1.25;1.05;;;20.90;72.20;;;;;;5106261;28;20020;-36
2023/10/13 02:13:23;;;;;;;1.40;1.00;;;20.90;72.20;;;;;;5103908;28;20519;-34
2023/10/13 02:15:53;;;;;;;0.95;0.82;;;20.90;72.20;;;;;;5106806;28;20471;-35
2023/10/13 02:18:26;;;;;;;1.00;0.88;;;20.90;72.20;;;;;;5103496;28;20043;-36
2023/10/13 02:21:04;;;;;;;1.40;0.90;;;20.90;72.20;;;;;;5103999;28;20024;-35
2023/10/13 02:23:30;;;;;;;1.17;1.08;;;20.90;72.10;;;;;;5103586;28;20039;-36
2023/10/13 02:26:10;;;;;;;1.15;1.05;;;20.90;72.20;;;;;;5103735;28;20032;-36
2023/10/13 02:29:04;;;;;;;1.23;1.10;;;20.90;72.10;;;;;;5103273;28;20092;-36
2023/10/13 02:31:30;;;;;;;0.70;0.70;;;20.90;72.10;;;;;;5015482;28;20094;-36
2023/10/13 02:33:56;;;;;;;1.27;0.95;;;20.90;72.10;;;;;;5019877;28;20038;-35
2023/10/13 02:36:23;;;;;;;0.80;0.80;;;20.90;72.50;;;;;;5020492;28;20102;-35
2023/10/13 02:38:50;;;;;;;0.98;0.85;;;20.90;72.90;;;;;;5017320;28;20057;-35
2023/10/13 02:41:37;;;;;;;0.68;0.68;;;20.90;72.90;;;;;;5020399;28;20046;-35
2023/10/13 02:44:07;;;;;;;1.42;0.80;;;20.90;72.80;;;;;;5020039;28;20128;-35
2023/10/13 02:46:39;;;;;;;1.00;0.90;;;20.90;72.60;;;;;;5020561;28;20057;-35
2023/10/13 02:49:13;;;;;;;0.90;0.80;;;20.90;72.60;;;;;;5019424;28;20033;-35
2023/10/13 02:51:41;;;;;;;1.10;0.80;;;20.90;72.50;;;;;;5020621;28;20030;-36
2023/10/13 02:54:11;;;;;;;0.98;0.80;;;20.90;72.50;;;;;;5019766;28;20586;-36
2023/10/13 02:56:48;;;;;;;0.93;0.93;;;20.90;72.40;;;;;;5020403;28;20048;-45
2023/10/13 02:59:14;;;;;;;1.25;1.00;;;20.90;72.60;;;;;;5012690;28;20093;-35
2023/10/13 03:01:41;;;;;;;1.27;0.98;;;20.90;72.50;;;;;;5020520;28;20037;-36
2023/10/13 03:04:08;;;;;;;0.70;0.70;;;20.90;72.40;;;;;;5019948;28;20042;-36
2023/10/13 03:06:35;;;;;;;0.88;0.88;;;20.90;72.50;;;;;;5019411;28;20033;-35
2023/10/13 03:09:19;;;;;;;0.88;0.85;;;20.90;72.40;;;;;;5092430;28;20042;-35
2023/10/13 03:11:48;;;;;;;0.70;0.70;;;20.90;72.30;;;;;;5115557;28;20640;-35
2023/10/13 03:14:24;;;;;;;0.80;0.80;;;20.90;72.30;;;;;;5103390;28;20023;-35
2023/10/13 03:16:54;;;;;;;0.80;0.80;;;20.90;72.40;;;;;;5103119;28;20028;-35
2023/10/13 03:19:20;;;;;;;1.05;0.88;;;20.90;72.30;;;;;;5109330;28;20111;-35
2023/10/13 03:21:57;;;;;;;0.93;0.93;;;20.90;72.40;;;;;;5119871;28;20087;-35
2023/10/13 03:24:33;;;;;;;0.90;0.90;;;20.90;72.30;;;;;;5107654;28;20499;-35
2023/10/13 03:27:12;;;;;;;1.30;1.00;;;20.90;72.30;;;;;;5110752;28;20134;-36
2023/10/13 03:29:48;;;;;;;1.08;0.98;;;20.90;72.30;;;;;;5117320;28;20039;-35
2023/10/13 03:32:15;;;;;;;1.00;0.90;;;20.90;72.30;;;;;;5113241;28;20054;-36
2023/10/13 03:34:52;;;;;;;;;;;20.90;72.30;;;;;;5095989;28;20027;-35
2023/10/13 03:37:51;;;;;;;1.05;0.90;;;20.90;72.50;;;;;;5119307;28;19916;-36
2023/10/13 03:43:04;;;;;;;1.65;0.70;;;20.90;73.10;;;;;;5107452;28;20027;-36
2023/10/13 03:45:39;;;;;;;1.10;1.00;;;20.90;72.80;;;;;;5119469;28;20034;-36
2023/10/13 03:48:27;;;;;;;1.25;1.15;;;20.90;72.70;;;;;;5107832;28;20127;-35
2023/10/13 03:53:53;;;;;;;0.88;0.88;;;20.90;72.80;;;;;;5111431;28;19918;-35
2023/10/13 03:56:26;;;;;;;0.70;0.70;;;20.90;72.70;;;;;;5114425;28;20099;-35
2023/10/13 04:07:38;;;;;;;1.30;0.90;;;20.90;72.50;;;;;;5032883;28;20036;-35
2023/10/13 04:10:19;;;;;;;0.70;0.70;;;20.90;72.50;;;;;;5031086;28;20036;-35
2023/10/13 04:16:02;;;;;;;0.70;0.70;;;20.90;72.50;;;;;;5003140;28;20146;-35
2023/10/13 04:18:46;;;;;;;0.77;0.77;;;20.90;72.50;;;;;;5002710;28;20415;-35
2023/10/13 04:21:39;;;;;;;0.80;0.80;;;20.90;72.50;;;;;;5002932;28;20026;-35
2023/10/13 04:24:23;;;;;;;1.05;0.75;;;20.90;72.50;;;;;;5002099;28;20914;-35
2023/10/13 04:32:28;;;;;;;0.88;0.88;;;20.90;73.20;;;;;;5002799;28;20045;-35
2023/10/13 04:35:01;;;;;;;0.70;0.60;;;20.90;73.00;;;;;;5001546;28;20916;-35
2023/10/13 04:37:32;;;;;;;0.80;0.80;;;20.90;73.00;;;;;;5011803;28;20042;-36
2023/10/13 04:40:11;;;;;;;1.30;0.90;;;20.90;72.90;;;;;;5011938;28;20069;-35
2023/10/13 04:42:49;;;;;;;0.75;0.70;;;20.90;72.90;;;;;;4996717;28;20204;-36
2023/10/13 04:50:56;;;;;;;0.80;0.80;;;20.90;72.80;;;;;;5099929;28;20085;-36
2023/10/13 05:46:20;;;;;;;0.93;0.80;;;20.90;72.90;;;;;;5111822;28;20043;-34
2023/10/13 05:48:51;;;;;;;0.70;0.70;;;20.90;72.90;;;;;;5106353;28;20107;-35
2023/10/13 06:30:04;;;;;;;0.70;0.70;;;20.80;73.00;;;;;;5120842;28;20080;-35
2023/10/13 06:32:32;;;;;;;0.65;0.60;;;20.90;73.30;;;;;;5116313;28;20111;-35
2023/10/13 06:34:58;;;;;;;0.50;0.50;;;20.90;73.30;;;;;;5118955;28;20055;-35
2023/10/13 06:37:32;;;;;;;1.17;0.70;;;20.90;73.20;;;;;;5115649;28;20091;-35
2023/10/13 06:40:36;;;;;;;0.80;0.80;;;20.90;73.10;;;;;;5112934;28;20393;-35
2023/10/13 06:43:40;;;;;;;0.68;0.68;;;20.90;73.10;;;;;;5093867;28;20043;-35
2023/10/13 06:45:41;;;;;;;0.90;0.65;;;20.90;73.00;;;;;;5107159;28;20054;-36
2023/10/13 06:48:12;;;;;;;0.70;0.70;;;20.90;73.00;;;;;;5118454;28;20043;-36
2023/10/13 06:50:41;;;;;;;1.15;0.65;;;20.90;73.00;;;;;;5111662;28;20028;-36
2023/10/13 06:53:07;;;;;;;0.63;0.63;;;20.90;73.00;;;;;;5104651;28;20024;-37
2023/10/13 06:55:39;;;;;;;1.05;0.82;;;20.90;72.90;;;;;;5109749;28;20047;-36
2023/10/13 06:58:06;;;;;;;0.70;0.70;;;20.90;72.90;;;;;;5113276;28;20040;-35
2023/10/13 07:00:38;;;;;;;1.20;0.70;;;20.90;72.80;;;;;;5121472;28;20020;-36
2023/10/13 07:03:08;;;;;;;0.77;0.70;;;20.90;72.90;;;;;;5120271;28;20042;-36
2023/10/13 07:05:38;;;;;;;0.85;0.80;;;20.90;72.80;;;;;;5118763;28;20084;-36
2023/10/13 07:08:08;;;;;;;0.70;0.70;;;20.90;73.50;;;;;;5111872;28;20028;-36
2023/10/13 07:10:51;;;;;;;0.85;0.57;;;20.90;72.80;;;;;;5109854;28;20028;-35
2023/10/13 07:13:19;;;;;;;1.13;0.68;;;20.90;72.80;;;;;;5114014;28;20040;-35
2023/10/13 07:15:46;;;;;;;1.05;0.80;;;20.90;72.80;;;;;;5114799;28;20024;-36
2023/10/13 07:18:16;;;;;;;0.88;0.68;;;20.90;72.70;;;;;;5109908;28;20050;-36
2023/10/13 07:20:45;;;;;;;0.80;0.80;;;20.80;72.70;;;;;;5114783;28;20078;-36
2023/10/13 07:23:17;;;;;;;0.80;0.70;;;20.80;72.70;;;;;;5108092;28;20028;-36
2023/10/13 07:26:02;;;;;;;0.65;0.60;;;20.80;72.70;;;;;;5107701;28;20028;-36
2023/10/13 07:28:35;;;;;;;0.80;0.70;;;20.80;72.70;;;;;;5103890;28;20040;-36
2023/10/13 07:33:34;;;;;;;0.60;0.50;;;20.90;73.40;;;;;;5112750;28;20020;-35
2023/10/13 07:36:15;;;;;;;0.52;0.52;;;20.90;73.30;;;;;;5115371;28;20027;-35
2023/10/13 07:41:31;;;;;;;0.73;0.70;;;20.90;73.10;;;;;;5069679;28;20057;-36
2023/10/13 07:43:59;;;;;;;1.17;0.70;;;20.90;73.00;;;;;;5108283;28;20032;-36
2023/10/13 07:46:31;;;;;;;0.80;0.80;;;20.90;73.00;;;;;;5117527;28;20028;-35
2023/10/13 07:49:08;;;;;;;0.60;0.60;;;20.90;73.10;;;;;;5113487;28;20032;-35
2023/10/13 07:51:44;;;;;;;;;;;20.90;73.00;;;;;;5124878;28;20475;-35
2023/10/13 07:54:21;;;;;;;0.60;0.60;;;20.90;73.00;;;;;;5109155;28;19912;-35
2023/10/13 07:56:48;;;;;;;0.80;0.70;;;20.90;72.90;;;;;;5116126;28;20128;-35
2023/10/13 07:59:22;;;;;;;0.80;0.70;;;20.90;72.90;;;;;;5113479;28;20040;-35
2023/10/13 08:02:11;;;;;;;0.60;0.60;;;20.90;72.90;;;;;;5110989;28;20036;-34
2023/10/13 08:04:36;;;;;;;0.95;0.70;;;20.90;72.80;;;;;;5119390;28;20111;-34
2023/10/13 08:07:13;;;;;;;0.90;0.77;;;20.90;72.80;;;;;;5107240;28;20032;-35
2023/10/13 08:09:51;;;;;;;1.17;0.90;;;20.90;72.90;;;;;;5123875;28;20216;-36
2023/10/13 08:12:21;;;;;;;1.23;0.85;;;20.90;72.80;;;;;;5109166;28;20034;-34
2023/10/13 08:14:48;;;;;;;0.50;0.50;;;20.90;72.80;;;;;;5108861;28;20435;-35
2023/10/13 08:17:14;;;;;;;0.65;0.60;;;20.80;72.70;;;;;;5108532;28;20043;-35
2023/10/13 08:19:44;;;;;;;1.87;0.67;;;20.80;72.70;;;;;;5115293;28;20032;-35
2023/10/13 08:32:57;;;;;;;0.82;0.60;;;20.90;73.10;;;;;;5121030;28;20043;-35
2023/10/13 08:35:33;;;;;;;0.70;0.70;;;20.90;73.20;;;;;;5109213;28;20035;-35
2023/10/13 08:38:04;;;;;;;0.90;0.65;;;20.90;73.10;;;;;;5108341;28;20783;-36
2023/10/13 08:40:43;;;;;;;0.82;0.70;;;20.90;73.00;;;;;;5110839;28;20031;-35
2023/10/13 08:43:13;;;;;;;0.93;0.70;;;20.90;73.00;;;;;;5113610;28;20099;-36
2023/10/13 08:50:52;;;;;;;1.73;0.82;;;20.90;73.00;;;;;;5095502;28;19918;-35
2023/10/13 08:53:31;;;;;;;1.15;0.88;;;20.90;73.00;;;;;;5105182;28;20057;-35
2023/10/13 08:56:33;;;;;;;0.80;0.80;;;20.90;72.90;;;;;;5104509;28;20036;-35
2023/10/13 08:59:09;;;;;;;1.23;0.52;;;20.90;73.60;;;;;;5115145;28;20613;-35
2023/10/13 09:01:48;;;;;;;0.90;0.60;;;20.90;72.80;;;;;;5109900;28;20028;-35
2023/10/13 09:09:43;;;;;;;1.52;0.60;;;20.80;72.70;;;;;;5104808;28;20032;-35
2023/10/13 09:12:18;;;;;;;1.98;0.80;;;20.80;72.70;;;;;;5104630;28;20714;-35
2023/10/13 09:14:57;;;;;;;0.98;0.70;;;20.80;72.70;;;;;;5113326;28;20028;-36
2023/10/13 09:17:38;;;;;;;0.90;0.60;;;20.80;72.70;;;;;;5111311;28;20553;-36
2023/10/13 09:25:38;;;;;;;0.88;0.70;;;20.90;73.50;;;;;;5112592;28;20162;-36
2023/10/13 09:28:10;;;;;;;0.65;0.60;;;20.90;73.30;;;;;;5104025;28;20040;-36
2023/10/13 09:30:46;;;;;;;0.60;0.60;;;20.90;73.20;;;;;;5116716;28;20032;-36
2023/10/13 09:33:20;;;;;;;0.77;0.70;;;20.90;73.20;;;;;;5105137;28;20490;-35
2023/10/13 09:35:50;;;;;;;0.77;0.55;;;20.90;73.10;;;;;;5104476;28;20031;-35
2023/10/13 09:38:17;;;;;;;0.63;0.60;;;20.90;73.10;;;;;;5107147;28;20057;-35
2023/10/13 09:40:49;;;;;;;0.60;0.60;;;20.90;73.10;;;;;;5115150;28;20019;-35
2023/10/13 09:43:19;;;;;;;0.80;0.65;;;20.90;73.00;;;;;;5111654;28;20032;-36
2023/10/13 09:48:40;;;;;;;0.57;0.57;;;20.90;73.00;;;;;;5106068;28;20100;-36
2023/10/13 09:51:13;;;;;;;0.70;0.70;;;20.90;73.00;;;;;;5095446;28;20078;-35
2023/10/13 09:53:39;;;;;;;0.93;0.70;;;20.90;73.00;;;;;;5108873;28;20500;-36
2023/10/13 09:56:23;;;;;;;0.77;0.60;;;20.90;73.00;;;;;;5105190;28;20028;-35
2023/10/13 09:58:57;;;;;;;0.95;0.60;;;20.90;73.00;;;;;;5094062;28;20050;-37
2023/10/13 10:01:33;;;;;;;0.90;0.70;;;20.90;73.00;;;;;;5090539;28;20027;-36
2023/10/13 10:04:11;;;;;;;0.73;0.63;;;20.90;72.90;;;;;;5093266;28;20053;-36
2023/10/13 10:06:44;;;;;;;0.68;0.60;;;20.90;72.90;;;;;;5104359;28;20048;-37
2023/10/13 10:09:11;;;;;;;1.38;0.80;;;20.80;72.90;;;;;;5113041;28;20116;-37
2023/10/13 10:12:22;;;;;;;1.17;0.80;;;20.80;73.10;;;;;;5091885;28;20024;-36
2023/10/13 10:15:13;;;;;;;0.88;0.68;;;20.80;72.80;;;;;;5103690;28;20035;-36
2023/10/13 10:17:43;;;;;;;0.77;0.73;;;20.80;72.80;;;;;;5117790;28;20047;-36
2023/10/13 10:20:19;;;;;;;0.80;0.80;;;20.80;72.70;;;;;;5117076;28;20543;-36
2023/10/13 10:22:59;;;;;;;0.60;0.50;;;20.80;73.10;;;;;;5110698;28;20067;-36
2023/10/13 10:25:44;;;;;;;0.70;0.70;;;20.90;73.50;;;;;;5115702;28;20034;-36
2023/10/13 10:28:15;;;;;;;0.60;0.60;;;20.90;73.40;;;;;;5114103;28;20043;-36
2023/10/13 10:30:42;;;;;;;0.80;0.80;;;20.90;73.30;;;;;;5114773;28;20606;-37
2023/10/13 10:35:44;;;;;;;0.70;0.70;;;20.90;73.30;;;;;;5114765;28;20038;-37
2023/10/13 10:38:32;;;;;;;0.50;0.50;;;20.90;73.20;;;;;;5116087;28;20036;-36
2023/10/13 10:41:05;;;;;;;0.82;0.73;;;20.90;73.20;;;;;;5119047;28;20028;-36
2023/10/13 10:43:47;;;;;;;0.80;0.80;;;20.90;73.50;;;;;;5121378;28;20051;-36
2023/10/13 10:46:14;;;;;;;0.63;0.63;;;20.90;73.20;;;;;;5106697;28;20471;-36
2023/10/13 10:48:43;;;;;;;;;;;20.90;73.10;;;;;;5110944;28;20092;-36
2023/10/13 10:51:22;;;;;;;0.75;0.60;;;20.90;73.10;;;;;;5110627;28;19916;-36
2023/10/13 10:53:52;;;;;;;1.30;1.00;;;20.90;73.00;;;;;;5117943;28;20039;-36
2023/10/13 10:56:25;;;;;;;0.73;0.73;;;20.80;73.00;;;;;;5114752;28;20028;-36
2023/10/13 10:59:01;;;;;;;1.15;0.98;;;20.80;72.90;;;;;;5122038;28;20064;-36
2023/10/13 11:01:38;;;;;;;0.82;0.60;;;20.80;72.90;;;;;;5119356;28;20031;-36
2023/10/13 11:04:08;;;;;;;0.83;0.83;;;20.80;73.00;;;;;;5124272;28;20027;-36
2023/10/13 11:06:42;;;;;;;0.93;0.70;;;20.80;72.90;;;;;;5118497;28;20272;-37
2023/10/13 11:11:53;;;;;;;0.70;0.70;;;20.80;73.00;;;;;;5122826;28;20050;-36
2023/10/13 11:14:26;;;;;;;1.38;0.90;;;20.80;73.40;;;;;;5114407;28;20062;-36
2023/10/13 11:16:54;;;;;;;0.93;0.80;;;20.90;73.60;;;;;;5096527;28;20065;-36
2023/10/13 11:19:25;;;;;;;0.70;0.70;;;20.90;73.50;;;;;;5122519;28;20065;-36
2023/10/13 11:21:54;;;;;;;1.10;0.73;;;20.90;73.40;;;;;;5116856;28;20028;-35
2023/10/13 11:24:21;;;;;;;0.80;0.80;;;20.90;73.30;;;;;;5117879;28;20061;-36
2023/10/13 11:26:52;;;;;;;0.82;0.70;;;20.90;73.40;;;;;;5117084;28;20070;-36
2023/10/13 11:29:19;;;;;;;1.10;0.70;;;20.90;73.30;;;;;;5118061;28;20058;-37
2023/10/13 11:31:58;;;;;;;0.90;0.80;;;20.90;73.30;;;;;;5099850;28;20379;-36
2023/10/13 11:34:25;;;;;;;1.90;0.60;;;20.90;73.30;;;;;;5115684;28;20036;-36
2023/10/13 11:36:52;;;;;;;0.75;0.70;;;20.90;73.30;;;;;;5114311;28;20078;-36
2023/10/13 11:39:33;;;;;;;0.70;0.70;;;20.90;73.20;;;;;;5098994;28;20100;-36
2023/10/13 11:41:59;;;;;;;0.70;0.65;;;20.90;73.20;;;;;;5115158;28;20035;-36
2023/10/13 11:44:26;;;;;;;0.82;0.68;;;20.90;73.10;;;;;;5117545;28;20035;-36
2023/10/13 11:46:55;;;;;;;1.02;0.90;;;20.90;73.10;;;;;;5113521;28;20020;-36
2023/10/13 11:52:15;;;;;;;1.00;0.90;;;20.80;73.10;;;;;;5115090;28;20019;-35
2023/10/13 11:54:42;;;;;;;1.10;1.00;;;20.80;73.10;;;;;;5110325;28;20039;-36
2023/10/13 11:57:08;;;;;;;0.67;0.60;;;20.80;73.00;;;;;;5114487;28;20119;-36
2023/10/13 11:59:40;;;;;;;1.43;0.90;;;20.80;73.10;;;;;;5119288;28;20314;-36
2023/10/13 12:05:04;;;;;;;1.58;0.70;;;20.90;73.70;;;;;;5113049;28;20028;-36
2023/10/13 12:07:45;;;;;;;0.75;0.70;;;20.90;73.50;;;;;;5113515;28;20119;-36
2023/10/13 12:10:33;;;;;;;0.60;0.60;;;20.90;73.40;;;;;;5115110;28;20062;-35
2023/10/13 12:13:10;;;;;;;0.90;0.90;;;20.90;73.40;;;;;;5115300;28;20031;-36
2023/10/13 12:15:56;;;;;;;0.90;0.70;;;20.90;73.30;;;;;;5113351;28;20031;-36
2023/10/13 12:18:23;;;;;;;1.77;0.80;;;20.90;73.30;;;;;;5107442;28;20034;-36
2023/10/13 12:20:49;;;;;;;0.98;0.70;;;20.90;73.20;;;;;;5115155;28;20538;-36
2023/10/13 12:23:17;;;;;;;0.50;0.50;;;20.90;73.30;;;;;;5123589;28;20099;-37
2023/10/13 12:25:57;;;;;;;1.52;0.90;;;20.90;73.20;;;;;;5123607;28;20028;-37
2023/10/13 12:28:26;;;;;;;0.95;0.90;;;20.90;73.10;;;;;;5113297;28;20039;-37
2023/10/13 12:30:57;;;;;;;1.05;0.95;;;20.90;73.10;;;;;;5113571;28;20117;-37
2023/10/13 12:33:24;;;;;;;1.17;0.80;;;20.90;73.10;;;;;;5113017;28;20031;-36
2023/10/13 12:52:54;;;;;;;1.13;0.90;;;20.80;73.00;;;;;;5116309;28;20092;-35
2023/10/13 12:54:58;;;;;;;0.80;0.80;;;20.80;73.00;;;;;;5082340;28;20085;-37
2023/10/13 12:57:28;;;;;;;0.90;0.80;;;20.80;73.00;;;;;;5109447;28;20036;-36
2023/10/13 12:59:54;;;;;;;2.15;0.70;;;20.80;73.00;;;;;;5108698;28;20028;-36
2023/10/13 13:02:21;;;;;;;0.82;0.75;;;20.80;73.00;;;;;;5112769;28;20024;-36
2023/10/13 13:04:54;;;;;;;0.82;0.80;;;20.80;73.00;;;;;;5120075;28;20080;-36
2023/10/13 13:07:20;;;;;;;1.02;0.93;;;20.80;73.40;;;;;;5108622;28;20028;-36
2023/10/13 13:09:46;;;;;;;0.90;0.80;;;20.80;73.70;;;;;;5121447;28;20630;-36
2023/10/13 13:12:12;;;;;;;1.85;1.08;;;20.90;73.70;;;;;;5115133;28;20058;-36
2023/10/13 13:14:45;;;;;;;0.77;0.70;;;20.90;73.50;;;;;;5122962;28;20059;-36
2023/10/13 13:17:25;;;;;;;1.00;1.00;;;20.90;73.50;;;;;;5059396;28;20048;-36
2023/10/13 13:19:51;;;;;;;0.80;0.80;;;20.90;73.50;;;;;;5072524;28;20108;-37
2023/10/13 13:22:18;;;;;;;0.70;0.70;;;20.90;73.50;;;;;;5073102;28;20056;-37
2023/10/13 13:24:44;;;;;;;1.43;0.87;;;20.90;73.50;;;;;;5080646;28;20537;-37
2023/10/13 13:27:13;;;;;;;0.80;0.80;;;20.90;73.40;;;;;;5071800;28;20047;-36
2023/10/13 13:29:43;;;;;;;0.90;0.90;;;20.90;73.40;;;;;;5080365;28;20040;-36
2023/10/13 13:32:30;;;;;;;1.05;0.95;;;20.90;73.40;;;;;;5070880;28;20027;-37
2023/10/13 13:35:05;;;;;;;0.75;0.70;;;20.90;73.30;;;;;;5070934;28;20045;-37
2023/10/13 13:37:31;;;;;;;1.73;0.80;;;20.80;73.20;;;;;;5074479;28;20116;-36
2023/10/13 13:40:13;;;;;;;1.10;1.00;;;20.80;73.30;;;;;;5072621;28;20090;-36
2023/10/13 13:42:43;;;;;;;1.13;1.02;;;20.80;73.20;;;;;;5074979;28;20628;-37
2023/10/13 13:45:21;;;;;;;1.20;1.10;;;20.80;73.30;;;;;;5070593;28;20116;-37
2023/10/13 13:47:53;;;;;;;0.90;0.90;;;20.80;73.20;;;;;;5068983;28;20050;-36
2023/10/13 13:50:24;;;;;;;1.85;1.20;;;20.80;73.20;;;;;;5067388;28;20075;-36
2023/10/13 13:52:52;;;;;;;1.83;1.00;;;20.80;73.20;;;;;;5071848;28;20431;-37
2023/10/13 13:55:20;;;;;;;1.40;1.10;;;20.80;73.20;;;;;;5096500;28;20036;-36
2023/10/13 13:57:46;;;;;;;1.20;1.10;;;20.80;73.30;;;;;;5111452;28;20031;-36
2023/10/13 14:00:17;;;;;;;1.20;1.10;;;20.80;73.20;;;;;;5105597;28;20060;-35
2023/10/13 14:02:49;;;;;;;1.38;1.00;;;20.80;73.20;;;;;;5104514;28;20039;-36
2023/10/13 14:05:16;;;;;;;1.10;1.00;;;20.80;73.10;;;;;;5115376;28;20055;-36
2023/10/13 14:07:48;;;;;;;1.00;0.90;;;20.80;73.20;;;;;;5112118;28;20032;-37
2023/10/13 14:10:31;;;;;;;1.15;1.05;;;20.80;73.50;;;;;;5118468;28;20853;-35
2023/10/13 14:13:47;;;;;;;1.23;1.10;;;20.80;73.80;;;;;;5103374;28;20043;-36
2023/10/13 14:15:56;;;;;;;1.08;1.00;;;20.90;73.90;;;;;;5102526;28;20047;-35
2023/10/13 14:18:30;;;;;;;1.17;1.02;;;20.90;73.70;;;;;;5108069;28;20035;-36
2023/10/13 14:20:56;;;;;;;1.10;1.00;;;20.90;73.70;;;;;;5113746;28;20039;-35
2023/10/13 14:23:22;;;;;;;1.25;1.15;;;20.90;73.70;;;;;;5107994;28;20032;-35
2023/10/13 14:25:51;;;;;;;1.30;1.20;;;20.90;73.60;;;;;;5106373;28;20054;-36
2023/10/13 14:28:18;;;;;;;1.30;1.17;;;20.90;73.60;;;;;;5113806;28;20075;-36
2023/10/13 14:30:44;;;;;;;1.20;1.00;;;20.90;73.60;;;;;;5107973;28;20028;-35
2023/10/13 14:33:10;;;;;;;1.20;1.10;;;20.90;73.50;;;;;;5092528;28;20109;-36
2023/10/13 14:35:37;;;;;;;1.20;1.10;;;20.90;73.50;;;;;;5103293;28;20019;-35
2023/10/13 14:38:03;;;;;;;1.13;1.02;;;20.90;73.60;;;;;;5102835;28;20043;-36
2023/10/13 14:40:30;;;;;;;1.65;1.23;;;20.90;73.60;;;;;;5108588;28;20038;-35
2023/10/13 14:42:56;;;;;;;1.60;0.90;;;20.90;73.50;;;;;;5105355;28;20050;-36
2023/10/13 14:45:22;;;;;;;1.20;1.10;;;20.90;73.50;;;;;;5110711;28;20405;-36
2023/10/13 14:47:48;;;;;;;1.30;1.20;;;20.90;73.50;;;;;;5103006;28;20028;-36
2023/10/13 14:50:19;;;;;;;1.15;1.00;;;20.90;73.50;;;;;;5107421;28;20028;-36
2023/10/13 14:52:49;;;;;;;2.22;0.90;;;20.90;73.50;;;;;;5106823;28;20066;-36
2023/10/13 14:55:22;;;;;;;1.30;1.20;;;20.90;73.50;;;;;;5108206;28;20086;-35
2023/10/13 14:57:49;;;;;;;2.67;1.20;;;20.90;73.40;;;;;;5118039;28;20050;-35
2023/10/13 15:00:18;;;;;;;;;;;20.90;73.50;;;;;;5108763;28;20028;-36
2023/10/13 15:02:44;;;;;;;1.27;1.10;;;20.90;73.40;;;;;;5113035;28;19911;-36
2023/10/13 15:05:16;;;;;;;2.47;1.50;;;20.90;74.20;;;;;;5103850;28;20044;-36
2023/10/13 15:07:45;;;;;;;1.20;1.10;;;20.90;73.50;;;;;;5109354;28;20031;-36
2023/10/13 15:10:15;;;;;;;1.20;1.10;;;20.90;73.50;;;;;;5105276;28;20035;-36
2023/10/13 15:12:43;;;;;;;1.40;1.30;;;20.90;73.50;;;;;;5117219;28;20096;-36
2023/10/13 15:15:13;;;;;;;1.17;1.08;;;20.90;73.40;;;;;;5105459;28;20043;-35
2023/10/13 15:17:44;;;;;;;1.55;1.45;;;20.90;73.40;;;;;;5113374;28;20035;-36
2023/10/13 15:20:15;;;;;;;0.95;0.95;;;20.90;74.20;;;;;;5115958;28;20051;-35
2023/10/13 15:22:43;;;;;;;1.38;1.27;;;20.90;73.40;;;;;;5109162;28;20051;-36
2023/10/13 15:25:20;;;;;;;1.58;1.48;;;20.90;73.40;;;;;;5116662;28;20051;-36
2023/10/13 15:27:55;;;;;;;1.30;1.20;;;20.90;73.40;;;;;;5110235;28;20043;-36
2023/10/13 15:30:30;;;;;;;1.35;1.20;;;20.90;73.40;;;;;;5114059;28;20058;-35
2023/10/13 15:32:57;;;;;;;1.35;1.25;;;20.90;73.40;;;;;;5111650;28;20064;-35
2023/10/13 15:35:28;;;;;;;1.33;1.20;;;20.90;73.40;;;;;;5106259;28;20024;-35
2023/10/13 15:37:55;;;;;;;1.50;1.40;;;20.90;73.40;;;;;;5112005;28;20127;-35
2023/10/13 15:40:21;;;;;;;;;;;20.90;73.40;;;;;;5125267;28;20057;-36
2023/10/13 15:42:47;;;;;;;1.63;1.40;;;20.90;73.40;;;;;;5117136;28;19912;-36
2023/10/13 15:45:16;;;;;;;1.42;1.13;;;20.90;73.40;;;;;;5121181;28;20383;-36
2023/10/13 15:47:46;;;;;;;1.98;1.45;;;20.90;73.40;;;;;;5108138;28;20043;-35
2023/10/13 15:50:15;;;;;;;1.30;1.20;;;20.90;73.40;;;;;;5116849;28;20032;-35
2023/10/13 15:52:48;;;;;;;2.72;1.27;;;20.90;73.30;;;;;;5113693;28;20016;-36
2023/10/13 15:55:17;;;;;;;1.17;1.05;;;20.90;73.80;;;;;;5106998;28;20097;-36
2023/10/13 15:57:43;;;;;;;1.50;1.30;;;20.90;74.10;;;;;;5106956;28;20024;-36
2023/10/13 16:00:29;;;;;;;1.40;1.30;;;20.90;74.10;;;;;;5115974;28;20100;-36
2023/10/13 16:02:56;;;;;;;1.55;1.00;;;20.90;74.00;;;;;;5109715;28;20032;-35
2023/10/13 16:05:24;;;;;;;1.45;1.35;;;21.00;74.00;;;;;;5124490;28;20111;-35
2023/10/13 16:07:52;;;;;;;1.30;1.20;;;21.00;73.80;;;;;;5091867;28;20036;-35
2023/10/13 16:10:21;;;;;;;;;;;21.00;73.90;;;;;;5112197;28;20514;-35
2023/10/13 16:12:47;;;;;;;0.95;0.90;;;21.00;73.90;;;;;;5094573;28;19918;-36
2023/10/13 16:15:13;;;;;;;1.65;1.40;;;21.00;73.80;;;;;;5108802;28;20109;-36
2023/10/13 16:17:40;;;;;;;1.40;1.30;;;21.00;73.70;;;;;;5123983;28;20488;-35
2023/10/13 16:20:17;;;;;;;1.88;1.38;;;21.00;73.80;;;;;;5118826;28;20042;-36
2023/10/13 16:22:44;;;;;;;1.33;1.05;;;21.00;73.80;;;;;;5106504;28;20032;-36